Time;durP1;ratioP1;P1;durP2;ratioP2;P2;SDS_P1;SDS_P2;PMS_P1;PMS_P2;Temp;Humidity;BMP_temperature;BMP_pressure;BME280_temperature;BME280_humidity;BME280_pressure;Samples;Min_cycle;Max_cycle;Signal;HPM_P1;HPM_P2
2024/03/05 00:02:04;;;;;;;;;;;18.20;62.50;;;;;;5042175;28;1744;-71
2024/03/05 00:04:30;;;;;;;;;;;18.20;62.50;;;;;;5038986;28;1267;-71
2024/03/05 00:06:55;;;;;;;;;;;18.20;62.60;;;;;;5042516;28;1391;-71
2024/03/05 00:09:21;;;;;;;;;;;18.20;62.60;;;;;;5040812;28;1449;-71
2024/03/05 00:11:46;;;;;;;;;;;18.20;62.70;;;;;;5039417;28;1451;-70
2024/03/05 00:14:12;;;;;;;;;;;18.20;62.70;;;;;;5038839;28;1956;-70
2024/03/05 00:16:37;;;;;;;;;;;18.20;62.70;;;;;;5042137;28;1473;-70
2024/03/05 00:19:03;;;;;;;;;;;18.20;62.70;;;;;;5039927;28;1345;-69
2024/03/05 00:21:28;;;;;;;;;;;18.10;62.70;;;;;;5041058;28;1540;-70
2024/03/05 00:23:53;;;;;;;;;;;18.10;62.70;;;;;;5041021;28;1525;-70
2024/03/05 00:26:21;;;;;;;;;;;18.10;62.70;;;;;;5041553;28;1307;-70
2024/03/05 00:28:46;;;;;;;;;;;18.10;62.80;;;;;;5036679;28;1570;-70
2024/03/05 00:31:12;;;;;;;;;;;18.10;62.80;;;;;;5046180;28;1259;-70
2024/03/05 00:33:37;;;;;;;;;;;18.10;62.80;;;;;;5043168;28;1462;-70
2024/03/05 00:36:03;;;;;;;;;;;18.10;62.80;;;;;;5043122;28;1898;-69
2024/03/05 00:38:29;;;;;;;;;;;18.10;62.80;;;;;;5039855;28;1616;-70
2024/03/05 00:40:54;;;;;;;;;;;18.10;62.90;;;;;;5070098;28;1369;-70
2024/03/05 00:43:20;;;;;;;;;;;18.10;62.90;;;;;;5041326;28;1290;-70
2024/03/05 00:45:46;;;;;;;;;;;18.10;62.90;;;;;;5039859;28;1469;-69
2024/03/05 00:48:11;;;;;;;;;;;18.10;62.90;;;;;;5040429;28;1378;-69
2024/03/05 00:50:37;;;;;;;;;;;18.10;62.90;;;;;;5039135;28;1442;-69
2024/03/05 00:53:04;;;;;;;;;;;18.10;63.00;;;;;;5040192;28;1553;-70
2024/03/05 00:55:30;;;;;;;;;;;18.10;63.00;;;;;;5039304;28;1963;-70
2024/03/05 00:57:56;;;;;;;;;;;18.10;63.10;;;;;;5039265;28;1476;-70
2024/03/05 01:00:24;;;;;;;;;;;18.10;63.00;;;;;;5038661;28;1313;-71
2024/03/05 01:02:49;;;;;;;;;;;18.10;63.00;;;;;;5039426;28;1445;-70
2024/03/05 01:05:16;;;;;;;;;;;18.10;63.10;;;;;;5037247;28;1238;-71
2024/03/05 01:07:41;;;;;;;;;;;18.10;63.10;;;;;;5057318;28;1388;-71
2024/03/05 01:10:07;;;;;;;;;;;18.10;63.10;;;;;;5038634;28;1476;-70
2024/03/05 01:12:32;;;;;;;;;;;18.10;63.10;;;;;;5041274;28;1347;-70
2024/03/05 01:14:58;;;;;;;;;;;18.10;63.10;;;;;;5070515;28;1890;-70
2024/03/05 01:17:23;;;;;;;;;;;18.00;63.10;;;;;;5037976;28;1135;-71
2024/03/05 01:19:49;;;;;;;;;;;18.10;63.10;;;;;;5036856;28;1324;-71
2024/03/05 01:22:14;;;;;;;;;;;18.10;63.20;;;;;;5035957;28;1470;-70
2024/03/05 01:24:40;;;;;;;;;;;18.00;63.10;;;;;;5036392;28;1534;-70
2024/03/05 01:27:06;;;;;;;;;;;18.00;63.10;;;;;;5041252;28;1440;-70
2024/03/05 01:29:32;;;;;;;;;;;18.00;63.10;;;;;;5038297;28;1337;-70
2024/03/05 01:31:59;;;;;;;;;;;18.00;63.20;;;;;;5036810;28;1463;-70
2024/03/05 01:34:25;;;;;;;;;;;18.00;63.20;;;;;;5037097;28;1910;-70
2024/03/05 01:36:56;;;;;;;;;;;18.00;63.20;;;;;;5038929;28;1574;-70
2024/03/05 01:39:24;;;;;;;;;;;18.00;63.20;;;;;;5043301;28;827;-70
2024/03/05 01:41:50;;;;;;;;;;;18.00;63.20;;;;;;5039815;28;1553;-69
2024/03/05 01:44:16;;;;;;;;;;;18.00;63.20;;;;;;5039011;28;1051;-69
2024/03/05 01:46:41;;;;;;;;;;;18.00;63.30;;;;;;5029920;28;1357;-69
2024/03/05 01:49:08;;;;;;;;;;;18.00;63.30;;;;;;5040595;28;1234;-70
2024/03/05 01:51:33;;;;;;;;;;;18.00;63.40;;;;;;5037238;28;1569;-70
2024/03/05 01:53:59;;;;;;;;;;;18.00;63.40;;;;;;5038058;28;1955;-70
2024/03/05 01:56:24;;;;;;;;;;;18.00;63.40;;;;;;5037669;28;1269;-71
2024/03/05 01:58:50;;;;;;;;;;;18.00;63.40;;;;;;5040674;28;1497;-72
2024/03/05 02:01:15;;;;;;;;;;;18.00;63.40;;;;;;5041445;28;1277;-72
2024/03/05 02:03:41;;;;;;;;;;;18.00;63.40;;;;;;5038781;28;1261;-70
2024/03/05 02:06:07;;;;;;;;;;;18.00;63.40;;;;;;5036558;28;1305;-70
2024/03/05 02:08:34;;;;;;;;;;;18.00;63.40;;;;;;5039409;28;1335;-69
2024/03/05 02:11:00;;;;;;;;;;;18.00;63.40;;;;;;5039571;28;1122;-69
2024/03/05 02:13:25;;;;;;;;;;;18.00;63.40;;;;;;5038369;28;1371;-70
2024/03/05 02:15:51;;;;;;;;;;;18.00;63.40;;;;;;5037181;28;1965;-71
2024/03/05 02:18:16;;;;;;;;;;;17.90;63.40;;;;;;5037939;28;1218;-71
2024/03/05 02:20:42;;;;;;;;;;;18.00;63.40;;;;;;5037466;28;1513;-71
2024/03/05 02:23:07;;;;;;;;;;;17.90;63.40;;;;;;5038838;28;1343;-70
2024/03/05 02:25:33;;;;;;;;;;;17.90;63.40;;;;;;5037696;28;1255;-71
2024/03/05 02:27:58;;;;;;;;;;;18.00;63.50;;;;;;5040171;28;1414;-71
2024/03/05 02:30:24;;;;;;;;;;;18.00;63.50;;;;;;5041355;28;1329;-71
2024/03/05 02:32:50;;;;;;;;;;;17.90;63.50;;;;;;5049668;28;1376;-71
2024/03/05 02:35:15;;;;;;;;;;;18.00;63.50;;;;;;5044904;28;1929;-70
2024/03/05 02:37:41;;;;;;;;;;;18.00;63.50;;;;;;5045539;28;1327;-72
2024/03/05 02:40:08;;;;;;;;;;;17.90;63.50;;;;;;5042542;28;1463;-70
2024/03/05 02:42:34;;;;;;;;;;;17.90;63.60;;;;;;5042682;28;1342;-71
2024/03/05 02:44:59;;;;;;;;;;;17.90;63.50;;;;;;5042060;28;1463;-71
2024/03/05 02:47:25;;;;;;;;;;;17.90;63.50;;;;;;5047248;28;1418;-70
2024/03/05 02:49:51;;;;;;;;;;;18.00;63.70;;;;;;5044825;28;1414;-72
2024/03/05 02:52:16;;;;;;;;;;;18.00;63.80;;;;;;5042734;28;1320;-73
2024/03/05 02:54:42;;;;;;;;;;;18.00;63.90;;;;;;5046063;28;1938;-72
2024/03/05 02:57:07;;;;;;;;;;;18.10;63.90;;;;;;5043076;28;1656;-72
2024/03/05 02:59:33;;;;;;;;;;;18.10;63.90;;;;;;5044731;28;1468;-72
2024/03/05 03:01:58;;;;;;;;;;;18.10;64.20;;;;;;5042132;28;1588;-71
2024/03/05 03:04:26;;;;;;;;;;;18.10;64.10;;;;;;5041283;28;1403;-72
2024/03/05 03:06:52;;;;;;;;;;;18.10;64.20;;;;;;5041269;28;1382;-72
2024/03/05 03:09:17;;;;;;;;;;;18.10;64.30;;;;;;5042634;28;1262;-72
2024/03/05 03:11:47;;;;;;;;;;;18.10;64.40;;;;;;5041074;28;1302;-72
2024/03/05 03:14:12;;;;;;;;;;;18.10;64.50;;;;;;5039658;28;1910;-71
2024/03/05 03:16:39;;;;;;;;;;;18.10;64.50;;;;;;5038359;28;1359;-71
2024/03/05 03:19:05;;;;;;;;;;;18.10;64.50;;;;;;5044392;28;1302;-71
2024/03/05 03:21:31;;;;;;;;;;;18.10;65.40;;;;;;5040018;28;1444;-71
2024/03/05 03:23:56;;;;;;;;;;;18.20;64.80;;;;;;5039638;28;1433;-72
2024/03/05 03:26:23;;;;;;;;;;;18.10;64.80;;;;;;5042663;28;1665;-72
2024/03/05 03:28:49;;;;;;;;;;;18.10;64.90;;;;;;5042029;28;1577;-71
2024/03/05 03:31:14;;;;;;;;;;;18.10;65.00;;;;;;5038386;28;1470;-71
2024/03/05 03:33:40;;;;;;;;;;;18.10;65.10;;;;;;5041525;28;1327;-73
2024/03/05 03:36:05;;;;;;;;;;;18.10;65.20;;;;;;5045512;28;1951;-72
2024/03/05 03:38:31;;;;;;;;;;;18.10;65.50;;;;;;5042488;28;1436;-73
2024/03/05 03:40:56;;;;;;;;;;;18.10;65.60;;;;;;5041189;28;1254;-72
2024/03/05 03:43:22;;;;;;;;;;;18.20;65.80;;;;;;5040982;28;1444;-72
2024/03/05 03:45:47;;;;;;;;;;;18.10;65.90;;;;;;5040600;28;1325;-72
2024/03/05 03:48:13;;;;;;;;;;;18.10;66.00;;;;;;5040239;28;1560;-72
2024/03/05 03:50:38;;;;;;;;;;;18.20;66.10;;;;;;5038541;28;1308;-73
2024/03/05 03:53:04;;;;;;;;;;;18.20;66.60;;;;;;5039951;28;1324;-73
2024/03/05 03:55:30;;;;;;;;;;;18.20;66.70;;;;;;5039720;28;1941;-72
2024/03/05 03:57:55;;;;;;;;;;;18.20;66.70;;;;;;5040286;28;1607;-72
2024/03/05 04:00:23;;;;;;;;;;;18.20;66.40;;;;;;5042790;28;1521;-72
2024/03/05 04:02:49;;;;;;;;;;;18.20;66.50;;;;;;5041838;28;1455;-72
2024/03/05 04:05:15;;;;;;;;;;;18.20;66.40;;;;;;5039985;28;1486;-72
2024/03/05 04:07:40;;;;;;;;;;;18.20;66.30;;;;;;5041819;28;1342;-72
2024/03/05 04:10:07;;;;;;;;;;;18.20;66.40;;;;;;5037756;28;1560;-72
2024/03/05 04:12:33;;;;;;;;;;;18.20;66.40;;;;;;5047642;28;1390;-72
2024/03/05 04:14:59;;;;;;;;;;;18.20;66.50;;;;;;5040156;28;1894;-72
2024/03/05 04:17:24;;;;;;;;;;;18.20;66.50;;;;;;5044879;28;1565;-71
2024/03/05 04:19:50;;;;;;;;;;;18.20;66.50;;;;;;5075199;28;1535;-73
2024/03/05 04:22:15;;;;;;;;;;;18.20;66.60;;;;;;5040490;28;1458;-72
2024/03/05 04:24:52;;;;;;;;;;;18.20;66.60;;;;;;5041447;28;1439;-72
2024/03/05 04:27:18;;;;;;;;;;;18.20;66.60;;;;;;5040663;28;1468;-72
2024/03/05 04:29:47;;;;;;;;;;;18.20;67.50;;;;;;5040219;28;1325;-72
2024/03/05 04:32:13;;;;;;;;;;;18.20;66.70;;;;;;5038486;28;1320;-72
2024/03/05 04:35:00;;;;;;;;;;;18.20;66.80;;;;;;5035891;28;1922;-71
2024/03/05 04:37:25;;;;;;;;;;;18.20;66.80;;;;;;5040804;28;1338;-72
2024/03/05 04:39:50;;;;;;;;;;;18.20;66.80;;;;;;5041502;28;1051;-73
2024/03/05 04:42:16;;;;;;;;;;;18.20;66.90;;;;;;5042052;28;1288;-72
2024/03/05 04:44:42;;;;;;;;;;;18.30;66.90;;;;;;5040242;28;1163;-72
2024/03/05 04:47:08;;;;;;;;;;;18.30;67.00;;;;;;5048483;28;1289;-73
2024/03/05 04:49:34;;;;;;;;;;;18.20;66.90;;;;;;5041153;28;1240;-72
2024/03/05 04:52:00;;;;;;;;;;;18.30;67.00;;;;;;5039555;28;1409;-72
2024/03/05 04:54:25;;;;;;;;;;;18.30;67.30;;;;;;5041850;28;1899;-71
2024/03/05 04:56:50;;;;;;;;;;;18.30;67.30;;;;;;5039430;28;1407;-74
2024/03/05 04:59:16;;;;;;;;;;;18.20;67.30;;;;;;5038021;28;1348;-72
2024/03/05 05:01:42;;;;;;;;;;;18.30;67.50;;;;;;5039647;28;1296;-72
2024/03/05 05:04:08;;;;;;;;;;;18.30;67.80;;;;;;5037819;28;1593;-72
2024/03/05 05:06:33;;;;;;;;;;;18.30;68.60;;;;;;5042017;28;1452;-73
2024/03/05 05:08:58;;;;;;;;;;;18.30;68.60;;;;;;5035820;28;1403;-73
2024/03/05 05:11:24;;;;;;;;;;;18.40;68.40;;;;;;5037883;28;1442;-72
2024/03/05 05:13:49;;;;;;;;;;;18.50;68.10;;;;;;5038900;28;1322;-73
2024/03/05 05:16:15;;;;;;;;;;;18.50;68.10;;;;;;5040284;28;1963;-72
2024/03/05 05:18:41;;;;;;;;;;;18.50;67.70;;;;;;5037828;28;1618;-72
2024/03/05 05:21:07;;;;;;;;;;;18.50;67.80;;;;;;5036452;28;1640;-72
2024/03/05 05:23:33;;;;;;;;;;;18.50;67.70;;;;;;5039213;28;1575;-73
2024/03/05 05:25:58;;;;;;;;;;;18.50;67.70;;;;;;5042233;28;1322;-72
2024/03/05 05:28:24;;;;;;;;;;;18.60;67.40;;;;;;5038995;28;1383;-72
2024/03/05 05:30:50;;;;;;;;;;;18.60;67.40;;;;;;5038928;28;1437;-72
2024/03/05 05:33:16;;;;;;;;;;;18.60;67.30;;;;;;5043507;28;1620;-72
2024/03/05 05:35:41;;;;;;;;;;;18.60;67.20;;;;;;5041105;28;1901;-74
2024/03/05 05:38:10;;;;;;;;;;;18.70;67.30;;;;;;5042161;28;1363;-72
2024/03/05 05:40:35;;;;;;;;;;;18.70;67.20;;;;;;5037977;28;1475;-73
2024/03/05 05:43:00;;;;;;;;;;;18.70;67.20;;;;;;5037910;28;1316;-72
2024/03/05 05:45:26;;;;;;;;;;;18.80;67.20;;;;;;5071917;28;1287;-72
2024/03/05 05:47:53;;;;;;;;;;;18.80;67.10;;;;;;5038141;28;1408;-73
2024/03/05 05:50:19;;;;;;;;;;;18.80;66.90;;;;;;5039686;28;1570;-72
2024/03/05 05:52:46;;;;;;;;;;;18.80;66.80;;;;;;5046384;28;1614;-72
2024/03/05 05:55:15;;;;;;;;;;;18.90;66.80;;;;;;5039345;28;1959;-72
2024/03/05 05:57:47;;;;;;;;;;;18.90;66.70;;;;;;5035572;28;1636;-72
2024/03/05 06:03:00;;;;;;;;;;;18.90;66.30;;;;;;5036376;28;1529;-72
2024/03/05 06:05:30;;;;;;;;;;;18.90;66.30;;;;;;5039006;28;1562;-71
2024/03/05 06:07:58;;;;;;;;;;;18.90;66.20;;;;;;5022709;28;1338;-72
2024/03/05 06:10:23;;;;;;;;;;;18.90;66.20;;;;;;5038989;28;1385;-73
2024/03/05 06:12:48;;;;;;;;;;;18.90;66.10;;;;;;5038121;28;1351;-72
2024/03/05 06:15:14;;;;;;;;;;;19.00;66.30;;;;;;5046389;28;1963;-73
2024/03/05 06:17:40;;;;;;;;;;;18.90;66.20;;;;;;5038425;28;1409;-72
2024/03/05 06:20:13;;;;;;;;;;;18.90;66.30;;;;;;5039402;28;1327;-73
2024/03/05 06:22:42;;;;;;;;;;;18.90;66.20;;;;;;5039158;28;1268;-72
2024/03/05 06:25:08;;;;;;;;;;;18.90;66.20;;;;;;5077017;28;1635;-73
2024/03/05 06:27:34;;;;;;;;;;;18.90;66.20;;;;;;5039464;28;1311;-70
2024/03/05 06:30:00;;;;;;;;;;;18.90;66.30;;;;;;5039228;28;1635;-71
2024/03/05 06:32:25;;;;;;;;;;;18.90;66.40;;;;;;5033371;28;2070;-70
2024/03/05 06:34:51;;;;;;;;;;;18.90;66.90;;;;;;5038540;28;2046;-71
2024/03/05 06:37:16;;;;;;;;;;;19.00;66.90;;;;;;5036553;28;1393;-70
2024/03/05 06:39:42;;;;;;;;;;;19.00;66.70;;;;;;5038223;28;1110;-71
2024/03/05 06:42:10;;;;;;;;;;;19.00;66.80;;;;;;5045928;28;2258;-71
2024/03/05 06:44:36;;;;;;;;;;;19.00;66.80;;;;;;5034824;28;1362;-69
2024/03/05 06:47:03;;;;;;;;;;;19.00;66.70;;;;;;5039961;28;1440;-70
2024/03/05 06:49:37;;;;;;;;;;;19.00;66.70;;;;;;5037211;28;1214;-69
2024/03/05 06:57:32;;;;;;;;;;;19.00;66.80;;;;;;5038127;28;1372;-69
2024/03/05 06:59:58;;;;;;;;;;;19.00;66.70;;;;;;5036298;28;1610;-69
2024/03/05 07:02:26;;;;;;;;;;;19.00;66.60;;;;;;5037911;28;1528;-69
2024/03/05 07:04:53;;;;;;;;;;;19.00;66.60;;;;;;5044865;28;1529;-69
2024/03/05 07:07:18;;;;;;;;;;;19.00;66.70;;;;;;5037302;28;1555;-69
2024/03/05 07:09:44;;;;;;;;;;;19.00;66.70;;;;;;5038961;28;1429;-69
2024/03/05 07:12:12;;;;;;;;;;;19.00;67.00;;;;;;5036882;28;1263;-69
2024/03/05 07:14:38;;;;;;;;;;;19.10;66.90;;;;;;5038603;28;1910;-69
2024/03/05 07:17:06;;;;;;;;;;;19.20;66.70;;;;;;5037807;28;1335;-69
2024/03/05 07:19:32;;;;;;;;;;;19.20;66.40;;;;;;5040422;28;1493;-69
2024/03/05 07:21:57;;;;;;;;;;;19.30;66.50;;;;;;5041709;28;1451;-70
2024/03/05 07:24:22;;;;;;;;;;;19.40;66.40;;;;;;5043366;28;1445;-72
2024/03/05 07:26:48;;;;;;;;;;;19.50;66.20;;;;;;5045968;28;1634;-71
2024/03/05 07:29:13;;;;;;;;;;;19.60;65.90;;;;;;5044123;28;1545;-70
2024/03/05 07:31:41;;;;;;;;;;;19.70;65.60;;;;;;5041850;28;1468;-71
2024/03/05 07:34:06;;;;;;;;;;;19.70;65.30;;;;;;5039880;28;1898;-70
2024/03/05 07:36:33;;;;;;;;;;;19.80;65.10;;;;;;5055720;28;1638;-71
2024/03/05 07:38:58;;;;;;;;;;;19.90;64.90;;;;;;5041729;28;1538;-71
2024/03/05 07:41:24;;;;;;;;;;;19.90;64.70;;;;;;5041169;28;1291;-71
2024/03/05 07:43:49;;;;;;;;;;;20.00;64.60;;;;;;5039432;28;1475;-70
2024/03/05 07:46:18;;;;;;;;;;;20.10;64.50;;;;;;5041285;28;1641;-70
2024/03/05 07:48:43;;;;;;;;;;;20.10;64.20;;;;;;5040486;28;1615;-70
2024/03/05 07:51:09;;;;;;;;;;;20.10;64.00;;;;;;5043426;28;1701;-69
2024/03/05 07:53:35;;;;;;;;;;;20.20;63.90;;;;;;5039123;28;1511;-70
2024/03/05 07:56:00;;;;;;;;;;;20.20;63.70;;;;;;5041350;28;1906;-69
2024/03/05 07:58:26;;;;;;;;;;;20.20;63.60;;;;;;5039410;28;1399;-70
2024/03/05 08:00:51;;;;;;;;;;;20.20;63.50;;;;;;5041994;28;1495;-70
2024/03/05 08:03:17;;;;;;;;;;;20.30;63.50;;;;;;5042694;28;1515;-70
2024/03/05 08:05:44;;;;;;;;;;;20.20;63.40;;;;;;5043687;28;1677;-70
2024/03/05 08:08:10;;;;;;;;;;;20.20;63.40;;;;;;5040335;28;1541;-70
2024/03/05 08:10:35;;;;;;;;;;;20.30;63.50;;;;;;5049776;28;1469;-71
2024/03/05 08:13:02;;;;;;;;;;;20.20;63.40;;;;;;5040890;28;1390;-70
2024/03/05 08:15:27;;;;;;;;;;;20.20;63.50;;;;;;5037646;28;1968;-70
2024/03/05 08:17:53;;;;;;;;;;;20.20;63.60;;;;;;5037387;28;1571;-70
2024/03/05 08:20:19;;;;;;;;;;;20.30;63.80;;;;;;5042564;28;1600;-71
2024/03/05 08:22:47;;;;;;;;;;;20.30;63.80;;;;;;5039638;28;1316;-70
2024/03/05 08:25:13;;;;;;;;;;;20.30;63.70;;;;;;5049043;28;1659;-71
2024/03/05 08:27:39;;;;;;;;;;;20.30;63.70;;;;;;5038551;28;1313;-70
2024/03/05 08:30:07;;;;;;;;;;;20.40;63.60;;;;;;5040544;28;1531;-70
2024/03/05 08:32:34;;;;;;;;;;;20.40;63.60;;;;;;5043222;28;1900;-70
2024/03/05 08:34:59;;;;;;;;;;;20.50;63.50;;;;;;5037276;28;1902;-70
2024/03/05 08:37:25;;;;;;;;;;;20.50;63.30;;;;;;5047737;28;1504;-70
2024/03/05 08:39:50;;;;;;;;;;;20.50;63.30;;;;;;5044740;28;1647;-70
2024/03/05 08:42:15;;;;;;;;;;;20.60;63.30;;;;;;5042579;28;1324;-70
2024/03/05 08:44:41;;;;;;;;;;;20.60;63.20;;;;;;5044113;28;1255;-69
2024/03/05 08:47:07;;;;;;;;;;;20.70;63.20;;;;;;5047445;28;1410;-70
2024/03/05 08:49:33;;;;;;;;;;;20.70;63.20;;;;;;5042678;28;1557;-70
2024/03/05 08:52:01;;;;;;;;;;;20.70;63.10;;;;;;5042732;28;1351;-70
2024/03/05 08:54:30;;;;;;;;;;;20.70;63.10;;;;;;5049939;28;1967;-70
2024/03/05 08:56:59;;;;;;;;;;;20.80;63.10;;;;;;5044866;28;1280;-70
2024/03/05 08:59:27;;;;;;;;;;;20.80;63.10;;;;;;5048922;28;1271;-70
2024/03/05 09:01:53;;;;;;;;;;;20.80;63.10;;;;;;5021456;28;1350;-70
2024/03/05 09:04:19;;;;;;;;;;;20.90;63.10;;;;;;5045242;28;864;-70
2024/03/05 09:06:45;;;;;;;;;;;20.90;63.10;;;;;;5046826;28;887;-69
2024/03/05 09:09:11;;;;;;;;;;;20.90;63.10;;;;;;5045943;28;1243;-70
2024/03/05 09:11:36;;;;;;;;;;;20.90;63.10;;;;;;5042281;28;1260;-70
2024/03/05 09:14:02;;;;;;;;;;;20.90;63.20;;;;;;5048380;28;1466;-70
2024/03/05 09:16:28;;;;;;;;;;;20.90;63.20;;;;;;5077977;28;1883;-69
2024/03/05 09:18:54;;;;;;;;;;;20.90;63.10;;;;;;5040125;28;978;-70
2024/03/05 09:21:19;;;;;;;;;;;20.90;63.10;;;;;;5040923;28;1272;-70
2024/03/05 09:23:45;;;;;;;;;;;20.90;63.10;;;;;;5045313;28;1435;-70
2024/03/05 09:26:10;;;;;;;;;;;20.90;63.00;;;;;;5074250;28;796;-69
2024/03/05 09:28:36;;;;;;;;;;;20.90;63.00;;;;;;5040829;28;1349;-70
2024/03/05 09:31:02;;;;;;;;;;;20.90;63.00;;;;;;5043740;28;1442;-70
2024/03/05 09:33:29;;;;;;;;;;;20.90;63.10;;;;;;5046280;28;1371;-70
2024/03/05 09:35:55;;;;;;;;;;;20.90;63.00;;;;;;5040982;28;1906;-70
2024/03/05 09:38:20;;;;;;;;;;;20.90;63.00;;;;;;5037106;28;1177;-70
2024/03/05 09:40:46;;;;;;;;;;;20.90;63.10;;;;;;5039104;28;1799;-70
2024/03/05 09:43:12;;;;;;;;;;;20.90;63.10;;;;;;5041035;28;1337;-70
2024/03/05 09:45:38;;;;;;;;;;;20.90;63.40;;;;;;5038883;28;1642;-69
2024/03/05 09:48:04;;;;;;;;;;;20.90;63.30;;;;;;5037331;28;1343;-71
2024/03/05 09:50:31;;;;;;;;;;;20.90;63.40;;;;;;5037839;28;1312;-71
2024/03/05 09:52:57;;;;;;;;;;;20.90;63.50;;;;;;5040968;28;1331;-71
2024/03/05 09:55:22;;;;;;;;;;;20.90;63.70;;;;;;5038810;28;1971;-72
2024/03/05 09:57:48;;;;;;;;;;;20.90;63.60;;;;;;5038310;28;1547;-71
2024/03/05 10:00:20;;;;;;;;;;;20.90;63.60;;;;;;5047690;28;1496;-71
2024/03/05 10:02:50;;;;;;;;;;;20.80;63.60;;;;;;5040408;28;1565;-70
2024/03/05 10:05:16;;;;;;;;;;;20.80;63.70;;;;;;5040616;28;1359;-71
2024/03/05 10:07:42;;;;;;;;;;;20.80;63.70;;;;;;5039402;28;1039;-71
2024/03/05 10:10:09;;;;;;;;;;;20.80;63.80;;;;;;5022619;28;1331;-71
2024/03/05 10:12:35;;;;;;;;;;;20.80;63.90;;;;;;5039523;28;1353;-71
2024/03/05 10:15:27;;;;;;;;;;;20.70;64.00;;;;;;5037555;28;1981;-72
2024/03/05 10:17:52;;;;;;;;;;;20.70;64.20;;;;;;5039476;28;1394;-72
2024/03/05 10:20:27;;;;;;;;;;;20.70;64.30;;;;;;5039782;28;1489;-70
2024/03/05 10:22:57;;;;;;;;;;;20.70;64.30;;;;;;5039820;28;1650;-71
2024/03/05 10:25:23;;;;;;;;;;;20.60;64.40;;;;;;5030523;28;1582;-71
2024/03/05 10:27:49;;;;;;;;;;;20.60;64.70;;;;;;5072634;28;1735;-71
2024/03/05 10:30:44;;;;;;;;;;;20.60;65.00;;;;;;5037984;28;1752;-70
2024/03/05 10:33:10;;;;;;;;;;;20.60;65.00;;;;;;5037082;28;1516;-71
2024/03/05 10:35:41;;;;;;;;;;;20.50;65.00;;;;;;5034997;28;1931;-71
2024/03/05 10:38:08;;;;;;;;;;;20.50;65.10;;;;;;5035970;28;1336;-71
2024/03/05 10:40:34;;;;;;;;;;;20.50;65.30;;;;;;5045244;28;1276;-70
2024/03/05 10:43:02;;;;;;;;;;;20.50;65.50;;;;;;5036688;28;1546;-71
2024/03/05 10:45:27;;;;;;;;;;;20.50;65.50;;;;;;5039399;28;1478;-71
2024/03/05 10:47:53;;;;;;;;;;;20.40;65.90;;;;;;5035451;28;1662;-71
2024/03/05 10:50:18;;;;;;;;;;;20.40;66.00;;;;;;5056891;28;1556;-71
2024/03/05 10:52:44;;;;;;;;;;;20.40;65.90;;;;;;5046528;28;1280;-71
2024/03/05 10:55:11;;;;;;;;;;;20.40;66.00;;;;;;5048868;28;1898;-70
2024/03/05 11:00:24;;;;;;;;;;;20.30;66.00;;;;;;5040994;28;1544;-70
2024/03/05 11:02:50;;;;;;;;;;;20.30;66.10;;;;;;5043740;28;1364;-70
2024/03/05 11:05:17;;;;;;;;;;;20.30;66.20;;;;;;5043006;28;1508;-70
2024/03/05 11:07:43;;;;;;;;;;;20.20;66.30;;;;;;5041777;28;1599;-71
2024/03/05 11:10:12;;;;;;;;;;;20.30;66.50;;;;;;5042168;28;1348;-70
2024/03/05 11:12:37;;;;;;;;;;;20.20;66.40;;;;;;5028942;28;1578;-71
2024/03/05 11:15:03;;;;;;;;;;;20.20;66.50;;;;;;5043780;28;1980;-71
2024/03/05 11:17:29;;;;;;;;;;;20.20;66.60;;;;;;5044713;28;1554;-71
2024/03/05 11:19:56;;;;;;;;;;;20.20;66.70;;;;;;5041263;28;1243;-71
2024/03/05 11:22:26;;;;;;;;;;;20.20;66.70;;;;;;5042535;28;1392;-72
2024/03/05 11:24:53;;;;;;;;;;;20.20;66.70;;;;;;5041296;28;1283;-71
2024/03/05 11:27:22;;;;;;;;;;;20.10;66.70;;;;;;5040884;28;1586;-72
2024/03/05 11:29:47;;;;;;;;;;;20.10;66.70;;;;;;5042326;28;1291;-72
2024/03/05 11:32:14;;;;;;;;;;;20.10;66.80;;;;;;5041938;28;1691;-72
2024/03/05 11:34:49;;;;;;;;;;;20.10;66.70;;;;;;5043347;28;1910;-72
2024/03/05 11:37:15;;;;;;;;;;;20.10;66.80;;;;;;5043723;28;1424;-72
2024/03/05 11:39:43;;;;;;;;;;;20.10;66.90;;;;;;5042434;28;1579;-71
2024/03/05 11:42:17;;;;;;;;;;;20.10;67.60;;;;;;5040875;28;1698;-72
2024/03/05 11:44:45;;;;;;;;;;;20.00;66.90;;;;;;5040837;28;1330;-72
2024/03/05 11:47:10;;;;;;;;;;;20.00;67.00;;;;;;5043378;28;1505;-71
2024/03/05 11:49:36;;;;;;;;;;;20.00;67.00;;;;;;5042118;28;1717;-71
2024/03/05 11:52:03;;;;;;;;;;;20.00;67.00;;;;;;5039595;28;1691;-69
2024/03/05 11:54:32;;;;;;;;;;;20.00;67.10;;;;;;5041270;28;1979;-71
2024/03/05 11:56:58;;;;;;;;;;;20.00;67.20;;;;;;5043611;28;1325;-70
2024/03/05 11:59:33;;;;;;;;;;;19.90;67.20;;;;;;5040941;28;1629;-70
2024/03/05 12:01:58;;;;;;;;;;;20.00;67.40;;;;;;5040761;28;1452;-70
2024/03/05 12:04:24;;;;;;;;;;;19.90;67.40;;;;;;5072999;28;1546;-70
2024/03/05 12:06:56;;;;;;;;;;;19.90;66.50;;;;;;5039651;28;1536;-69
2024/03/05 12:09:21;;;;;;;;;;;19.90;59.80;;;;;;5039375;28;1247;-70
2024/03/05 12:12:22;;;;;;;;;;;19.80;57.30;;;;;;5040632;28;1345;-70
2024/03/05 12:14:53;;;;;;;;;;;19.70;55.10;;;;;;5042617;28;2254;-69
2024/03/05 12:17:19;;;;;;;;;;;19.60;52.80;;;;;;5043439;28;1761;-69
2024/03/05 12:19:46;;;;;;;;;;;19.50;52.10;;;;;;5047691;28;1393;-70
2024/03/05 12:22:12;;;;;;;;;;;19.50;50.90;;;;;;5037585;28;1679;-70
2024/03/05 12:24:37;;;;;;;;;;;19.40;49.80;;;;;;5036108;28;1618;-72
2024/03/05 12:27:03;;;;;;;;;;;19.30;48.80;;;;;;5040588;28;1440;-71
2024/03/05 12:29:40;;;;;;;;;;;19.20;48.10;;;;;;5038671;28;1311;-71
2024/03/05 12:32:12;;;;;;;;;;;19.20;48.20;;;;;;5040652;28;1777;-73
2024/03/05 12:34:42;;;;;;;;;;;19.10;47.40;;;;;;5041952;28;1969;-69
2024/03/05 12:37:09;;;;;;;;;;;19.10;47.30;;;;;;5039713;28;1481;-69
2024/03/05 12:39:35;;;;;;;;;;;19.00;46.70;;;;;;5026038;28;1447;-68
2024/03/05 12:42:11;;;;;;;;;;;19.00;46.10;;;;;;5042350;28;1344;-70
2024/03/05 12:44:36;;;;;;;;;;;18.90;46.10;;;;;;5035987;28;1863;-71
2024/03/05 12:47:05;;;;;;;;;;;18.80;45.60;;;;;;5038007;28;1388;-70
2024/03/05 12:49:31;;;;;;;;;;;18.80;45.00;;;;;;5036150;28;1551;-71
2024/03/05 12:52:04;;;;;;;;;;;18.80;45.00;;;;;;5039646;28;1506;-71
2024/03/05 12:54:29;;;;;;;;;;;18.80;45.00;;;;;;5039908;28;1902;-72
2024/03/05 12:56:55;;;;;;;;;;;18.70;44.90;;;;;;5038042;28;1156;-70
2024/03/05 12:59:21;;;;;;;;;;;18.70;45.00;;;;;;5039610;28;1907;-71
2024/03/05 13:01:47;;;;;;;;;;;18.70;44.60;;;;;;5039539;28;1746;-71
2024/03/05 13:04:12;;;;;;;;;;;18.70;44.30;;;;;;5039844;28;1253;-71
2024/03/05 13:06:38;;;;;;;;;;;18.70;44.10;;;;;;5037995;28;1149;-71
2024/03/05 13:09:05;;;;;;;;;;;18.70;43.60;;;;;;5039707;28;1023;-71
2024/03/05 13:11:30;;;;;;;;;;;18.70;43.40;;;;;;5041076;28;1205;-70
2024/03/05 13:14:00;;;;;;;;;;;18.70;43.20;;;;;;5040668;28;1626;-70
2024/03/05 13:16:25;;;;;;;;;;;18.60;43.00;;;;;;5039860;28;1902;-70
2024/03/05 13:18:51;;;;;;;;;;;18.70;43.50;;;;;;5040780;28;1541;-70
2024/03/05 13:21:16;;;;;;;;;;;18.70;43.60;;;;;;5040999;28;1356;-69
2024/03/05 13:23:44;;;;;;;;;;;18.70;44.20;;;;;;5038189;28;1566;-69
2024/03/05 13:26:10;;;;;;;;;;;18.70;44.30;;;;;;5046916;28;1709;-69
2024/03/05 13:28:36;;;;;;;;;;;18.70;44.60;;;;;;5037061;28;1690;-70
2024/03/05 13:31:05;;;;;;;;;;;18.70;45.30;;;;;;5039426;28;1680;-71
2024/03/05 13:33:31;;;;;;;;;;;18.70;45.40;;;;;;5038603;28;1343;-70
2024/03/05 13:35:56;;;;;;;;;;;18.70;45.60;;;;;;5041001;28;1910;-71
2024/03/05 13:38:23;;;;;;;;;;;18.60;45.30;;;;;;5043056;28;1382;-70
2024/03/05 13:40:52;;;;;;;;;;;18.70;44.90;;;;;;5024598;28;1465;-70
2024/03/05 13:43:22;;;;;;;;;;;18.70;44.70;;;;;;5041365;28;1747;-69
2024/03/05 13:45:51;;;;;;;;;;;18.60;44.60;;;;;;5036731;28;1880;-70
2024/03/05 13:48:18;;;;;;;;;;;18.60;44.60;;;;;;5036828;28;1452;-69
2024/03/05 13:50:51;;;;;;;;;;;18.60;44.40;;;;;;5039864;28;1293;-70
2024/03/05 13:53:20;;;;;;;;;;;18.60;44.20;;;;;;5038351;28;1351;-69
2024/03/05 13:55:46;;;;;;;;;;;18.60;44.20;;;;;;5036851;28;1957;-69
2024/03/05 13:58:14;;;;;;;;;;;18.60;43.80;;;;;;5019820;28;1383;-69
2024/03/05 14:00:40;;;;;;;;;;;18.60;43.80;;;;;;5036707;28;1527;-69
2024/03/05 14:03:12;;;;;;;;;;;18.60;44.10;;;;;;5023939;28;1464;-69
2024/03/05 14:05:37;;;;;;;;;;;18.60;44.40;;;;;;5039974;28;1136;-70
2024/03/05 14:08:06;;;;;;;;;;;18.60;44.00;;;;;;5054294;28;1502;-69
2024/03/05 14:10:31;;;;;;;;;;;18.60;46.20;;;;;;5039582;28;1337;-70
2024/03/05 14:12:57;;;;;;;;;;;18.60;46.50;;;;;;5037093;28;1386;-70
2024/03/05 14:15:22;;;;;;;;;;;18.50;46.40;;;;;;5041009;28;1913;-70
2024/03/05 14:17:48;;;;;;;;;;;18.60;46.60;;;;;;5041059;28;1286;-70
2024/03/05 14:20:13;;;;;;;;;;;18.60;46.80;;;;;;5038114;28;1641;-70
2024/03/05 14:22:39;;;;;;;;;;;18.60;47.30;;;;;;5044850;28;1524;-69
2024/03/05 14:25:05;;;;;;;;;;;18.60;47.70;;;;;;5041774;28;1803;-70
2024/03/05 14:27:31;;;;;;;;;;;18.60;48.10;;;;;;5043624;28;1296;-73
2024/03/05 14:29:56;;;;;;;;;;;18.60;48.40;;;;;;5045323;28;1362;-71
2024/03/05 14:32:22;;;;;;;;;;;18.60;48.60;;;;;;5045256;28;1538;-69
2024/03/05 14:34:47;;;;;;;;;;;18.60;49.00;;;;;;5043930;28;1975;-69
2024/03/05 14:37:13;;;;;;;;;;;18.60;49.20;;;;;;5045730;28;1336;-70
2024/03/05 14:39:41;;;;;;;;;;;18.60;49.50;;;;;;5044363;28;1302;-70